Terminal Aerodrome Forecast
Issued by NWS Portland, OR

Home | Current Version | Previous Version | Text Only | Print | Product List | Glossary On
Versions: 1 2 3 4 5 6 7 8 9 10 11 12 13 14 15 16 17 18 19 20 21
000
FTUS46 KPQR 311534 AAC
TAFSLE
TAF AMD
KSLE 311534Z 3116/0112 VRB06KT P6SM -RA SCT015 BKN035 OVC060
     FM311700 17007KT P6SM VCSH BKN050
     FM010600 00000KT 4SM BR SCT012 BKN080=

USA.gov is the U.S. government's official web portal to all federal, state and local government web resources and services.